Time;durP1;ratioP1;P1;durP2;ratioP2;P2;SDS_P1;SDS_P2;PMS_P1;PMS_P2;Temp;Humidity;BMP_temperature;BMP_pressure;BME280_temperature;BME280_humidity;BME280_pressure;Samples;Min_cycle;Max_cycle;Signal;HPM_P1;HPM_P2
2022/04/25 00:01:34;;;;;;;19.40;6.57;;;;;;;;;;5051671;28;20045;-81
2022/04/25 00:04:19;;;;;;;22.38;6.70;;;;;;;;;;5051045;28;20497;-81
2022/04/25 00:07:05;;;;;;;28.05;6.32;;;;;;;;;;5051145;28;20041;-81
2022/04/25 00:09:50;;;;;;;22.20;6.75;;;;;;;;;;5051198;28;20049;-81
2022/04/25 00:12:36;;;;;;;25.45;5.93;;;;;;;;;;5050841;28;20474;-81
2022/04/25 00:15:21;;;;;;;28.15;6.20;;;;;;;;;;5051323;28;20041;-81
2022/04/25 00:18:07;;;;;;;17.80;5.25;;;;;;;;;;5050899;28;20041;-81
2022/04/25 00:20:52;;;;;;;23.33;5.90;;;;;;;;;;5051246;28;20045;-81
2022/04/25 00:23:38;;;;;;;48.53;14.30;;;;;;;;;;5050878;28;20045;-81
2022/04/25 00:26:23;;;;;;;33.22;11.93;;;;;;;;;;5050854;28;20049;-81
2022/04/25 00:29:09;;;;;;;25.20;7.10;;;;;;;;;;5051133;28;20044;-80
2022/04/25 00:31:55;;;;;;;35.45;7.30;;;;;;;;;;5050583;28;20041;-80
2022/04/25 00:34:40;;;;;;;33.42;8.50;;;;;;;;;;5050968;28;20033;-81
2022/04/25 00:37:25;;;;;;;22.77;4.90;;;;;;;;;;5050589;28;20033;-81
2022/04/25 00:40:11;;;;;;;18.08;4.00;;;;;;;;;;5051026;28;20041;-80
2022/04/25 00:42:56;;;;;;;22.35;4.22;;;;;;;;;;5050985;28;20056;-81
2022/04/25 00:45:41;;;;;;;21.70;4.00;;;;;;;;;;5056997;28;20045;-81
2022/04/25 00:48:26;;;;;;;25.33;4.40;;;;;;;;;;5050540;28;20034;-81
2022/04/25 00:51:11;;;;;;;23.42;4.63;;;;;;;;;;5050491;28;20394;-81
2022/04/25 00:53:57;;;;;;;18.65;4.03;;;;;;;;;;5050668;28;20045;-81
2022/04/25 00:56:42;;;;;;;24.20;4.50;;;;;;;;;;5050519;28;20045;-81
2022/04/25 00:59:29;;;;;;;18.20;5.18;;;;;;;;;;5050528;28;20394;-81
2022/04/25 01:02:14;;;;;;;24.17;5.20;;;;;;;;;;5050591;28;20398;-81
2022/04/25 01:05:00;;;;;;;23.00;6.47;;;;;;;;;;5050674;28;20049;-81
2022/04/25 01:07:46;;;;;;;21.75;6.60;;;;;;;;;;5050553;28;20049;-81
2022/04/25 01:10:31;;;;;;;19.00;6.53;;;;;;;;;;5056099;28;20049;-81
2022/04/25 01:13:16;;;;;;;21.15;4.32;;;;;;;;;;5054903;28;20041;-81
2022/04/25 01:16:02;;;;;;;20.67;5.20;;;;;;;;;;5058101;28;20049;-81
2022/04/25 01:18:48;;;;;;;19.45;4.32;;;;;;;;;;5050159;28;20481;-80
2022/04/25 01:21:40;;;;;;;22.00;4.68;;;;;;;;;;5050150;28;20037;-81
2022/04/25 01:27:29;;;;;;;24.52;5.82;;;;;;;;;;5053721;28;20041;-80
2022/04/25 01:30:14;;;;;;;17.73;4.15;;;;;;;;;;5053882;28;20041;-81
2022/04/25 01:33:00;;;;;;;21.83;4.07;;;;;;;;;;5053429;28;20053;-80
2022/04/25 01:35:45;;;;;;;15.40;4.65;;;;;;;;;;5053792;28;20045;-80
2022/04/25 01:38:31;;;;;;;20.42;4.97;;;;;;;;;;5057062;28;20045;-80
2022/04/25 01:41:16;;;;;;;21.98;4.43;;;;;;;;;;5055188;28;20049;-80
2022/04/25 01:44:03;;;;;;;21.63;4.15;;;;;;;;;;5053363;28;20053;-80
2022/04/25 01:46:49;;;;;;;25.85;4.47;;;;;;;;;;5053221;28;20401;-80
2022/04/25 01:49:34;;;;;;;27.13;4.35;;;;;;;;;;5053171;28;20041;-80
2022/04/25 01:52:34;;;;;;;23.92;4.10;;;;;;;;;;5052867;28;20045;-80
2022/04/25 01:55:19;;;;;;;16.10;3.45;;;;;;;;;;5053118;28;20049;-80
2022/04/25 01:58:04;;;;;;;15.02;3.40;;;;;;;;;;5053462;28;20049;-80
2022/04/25 02:00:49;;;;;;;24.42;4.40;;;;;;;;;;5060350;28;20041;-80
2022/04/25 02:03:35;;;;;;;21.85;4.20;;;;;;;;;;5053016;28;20084;-80
2022/04/25 02:06:21;;;;;;;13.07;3.53;;;;;;;;;;5052985;28;20044;-80
2022/04/25 02:09:06;;;;;;;24.38;4.18;;;;;;;;;;5052932;28;20041;-80
2022/04/25 02:11:52;;;;;;;24.85;6.20;;;;;;;;;;5053216;28;20045;-80
2022/04/25 02:14:40;;;;;;;21.60;5.07;;;;;;;;;;5052688;28;20040;-81
2022/04/25 02:17:25;;;;;;;21.40;5.03;;;;;;;;;;5052833;28;20045;-81
2022/04/25 02:20:12;;;;;;;30.55;6.20;;;;;;;;;;5052847;28;20041;-81
2022/04/25 02:22:57;;;;;;;22.70;6.07;;;;;;;;;;5052908;28;20037;-81
2022/04/25 02:25:42;;;;;;;16.15;5.20;;;;;;;;;;5053046;28;20045;-81
2022/04/25 02:28:28;;;;;;;23.38;5.20;;;;;;;;;;5059399;28;20045;-81
2022/04/25 02:31:14;;;;;;;16.83;5.55;;;;;;;;;;5052614;28;20045;-81
2022/04/25 02:34:00;;;;;;;20.60;5.80;;;;;;;;;;5052082;28;20045;-81
2022/04/25 02:36:45;;;;;;;21.23;5.25;;;;;;;;;;5052788;28;20041;-81
2022/04/25 02:39:30;;;;;;;19.85;5.07;;;;;;;;;;5052578;28;20474;-81
2022/04/25 02:42:16;;;;;;;17.55;4.53;;;;;;;;;;5052663;28;20049;-81
2022/04/25 02:45:02;;;;;;;13.15;4.45;;;;;;;;;;5059121;28;20053;-81
2022/04/25 02:47:48;;;;;;;16.75;4.40;;;;;;;;;;5059414;28;20045;-81
2022/04/25 02:50:33;;;;;;;18.15;3.65;;;;;;;;;;5052237;28;20389;-81
2022/04/25 02:53:18;;;;;;;13.50;3.38;;;;;;;;;;5052810;28;20045;-81
2022/04/25 02:56:05;;;;;;;17.15;3.22;;;;;;;;;;5058932;28;20477;-81
2022/04/25 02:58:51;;;;;;;17.40;3.50;;;;;;;;;;5058801;28;20489;-80
2022/04/25 03:01:36;;;;;;;21.70;3.25;;;;;;;;;;5052453;28;20409;-81
2022/04/25 03:04:22;;;;;;;15.55;3.83;;;;;;;;;;5052017;28;20049;-81
2022/04/25 03:07:07;;;;;;;13.88;2.80;;;;;;;;;;5052259;28;20041;-81
2022/04/25 03:09:53;;;;;;;12.95;2.83;;;;;;;;;;5052369;28;20041;-81
2022/04/25 03:12:38;;;;;;;13.77;3.45;;;;;;;;;;5052167;28;20470;-81
2022/04/25 03:15:24;;;;;;;18.48;3.00;;;;;;;;;;5051610;28;20406;-81
2022/04/25 03:18:11;;;;;;;10.10;2.75;;;;;;;;;;5058209;28;20036;-81
2022/04/25 03:20:57;;;;;;;11.05;3.58;;;;;;;;;;5051694;28;20053;-79
2022/04/25 03:23:42;;;;;;;17.08;5.55;;;;;;;;;;5058351;28;20045;-80
2022/04/25 03:26:27;;;;;;;19.55;4.13;;;;;;;;;;5056038;28;20049;-80
2022/04/25 03:29:13;;;;;;;21.92;3.95;;;;;;;;;;5061037;28;20041;-80
2022/04/25 03:31:59;;;;;;;21.90;3.83;;;;;;;;;;5051656;28;20477;-80
2022/04/25 03:34:44;;;;;;;17.50;3.80;;;;;;;;;;5051438;28;20485;-80
2022/04/25 03:37:35;;;;;;;16.27;3.63;;;;;;;;;;5058231;28;20041;-80
2022/04/25 03:40:20;;;;;;;14.75;3.42;;;;;;;;;;5051512;28;20041;-81
2022/04/25 03:43:09;;;;;;;19.38;4.55;;;;;;;;;;5051046;28;20048;-79
2022/04/25 03:45:55;;;;;;;19.80;4.07;;;;;;;;;;5050354;28;20053;-79
2022/04/25 03:48:41;;;;;;;22.27;3.90;;;;;;;;;;5051128;28;20489;-79
2022/04/25 03:51:28;;;;;;;22.25;4.10;;;;;;;;;;5055361;28;20049;-80
2022/04/25 03:57:09;;;;;;;18.55;5.25;;;;;;;;;;5057750;28;20041;-79
2022/04/25 03:57:19;;;;;;;10.48;3.13;;;;;;;;;;5058275;28;20041;-80
2022/04/25 04:00:06;;;;;;;8.00;2.75;;;;;;;;;;5057720;28;20044;-80
2022/04/25 04:02:58;;;;;;;9.10;2.88;;;;;;;;;;5051056;28;20049;-81
2022/04/25 04:05:48;;;;;;;14.95;2.80;;;;;;;;;;5051210;28;20049;-81
2022/04/25 04:08:33;;;;;;;12.88;2.63;;;;;;;;;;5051202;28;20053;-81
2022/04/25 04:11:19;;;;;;;15.40;4.45;;;;;;;;;;5050757;28;20045;-81
2022/04/25 04:14:04;;;;;;;24.27;5.57;;;;;;;;;;5050938;28;20041;-80
2022/04/25 04:16:50;;;;;;;19.30;5.38;;;;;;;;;;5050926;28;20048;-80
2022/04/25 04:19:37;;;;;;;9.73;2.92;;;;;;;;;;5051118;28;20040;-80
2022/04/25 04:22:25;;;;;;;20.15;6.47;;;;;;;;;;5050690;28;20045;-80
2022/04/25 04:25:12;;;;;;;24.98;4.70;;;;;;;;;;5051113;28;20045;-80
2022/04/25 04:27:57;;;;;;;16.60;4.35;;;;;;;;;;5050806;28;20481;-80
2022/04/25 04:30:44;;;;;;;26.52;7.72;;;;;;;;;;5052697;28;20041;-80
2022/04/25 04:33:29;;;;;;;22.70;4.32;;;;;;;;;;5051721;28;20489;-80
2022/04/25 04:36:18;;;;;;;21.85;7.45;;;;;;;;;;5050649;28;20041;-80
2022/04/25 04:39:03;;;;;;;16.55;4.38;;;;;;;;;;5051092;28;20049;-80
2022/04/25 04:41:48;;;;;;;26.05;4.22;;;;;;;;;;5050695;28;20049;-80
2022/04/25 04:44:36;;;;;;;15.02;4.45;;;;;;;;;;5050454;28;20045;-80
2022/04/25 04:47:21;;;;;;;18.50;5.25;;;;;;;;;;5050589;28;20041;-80
2022/04/25 04:50:15;;;;;;;19.45;4.60;;;;;;;;;;5050357;28;20490;-80
2022/04/25 04:53:01;;;;;;;18.10;4.90;;;;;;;;;;5050508;28;20498;-80
2022/04/25 04:55:46;;;;;;;22.08;5.30;;;;;;;;;;5050264;28;20053;-80
2022/04/25 04:58:31;;;;;;;14.32;5.30;;;;;;;;;;5053157;28;20045;-81
2022/04/25 05:01:17;;;;;;;28.13;7.18;;;;;;;;;;5054283;28;20044;-79
2022/04/25 05:04:02;;;;;;;23.25;7.18;;;;;;;;;;5052628;28;20049;-80
2022/04/25 05:06:47;;;;;;;31.70;6.50;;;;;;;;;;5053861;28;20049;-80
2022/04/25 05:09:33;;;;;;;22.65;7.25;;;;;;;;;;5053808;28;20049;-80
2022/04/25 05:12:18;;;;;;;21.98;7.80;;;;;;;;;;5053797;28;20045;-81
2022/04/25 05:15:03;;;;;;;23.02;6.75;;;;;;;;;;5053692;28;20045;-80
2022/04/25 05:17:50;;;;;;;22.90;7.05;;;;;;;;;;5053632;28;20049;-81
2022/04/25 05:20:35;;;;;;;24.40;6.78;;;;;;;;;;5053888;28;20049;-81
2022/04/25 05:23:21;;;;;;;18.58;5.88;;;;;;;;;;5053025;28;20040;-81
2022/04/25 05:26:07;;;;;;;24.83;11.40;;;;;;;;;;5053582;28;20045;-81
2022/04/25 05:29:01;;;;;;;24.48;11.23;;;;;;;;;;5053911;28;20041;-81
2022/04/25 05:31:49;;;;;;;30.88;10.73;;;;;;;;;;5053365;28;20079;-82
2022/04/25 05:34:34;;;;;;;33.22;9.52;;;;;;;;;;5053403;28;20041;-81
2022/04/25 05:37:20;;;;;;;25.13;9.88;;;;;;;;;;5053592;28;20037;-82
2022/04/25 05:40:06;;;;;;;27.92;9.60;;;;;;;;;;5066266;28;20045;-82
2022/04/25 05:42:55;;;;;;;36.30;10.88;;;;;;;;;;5055984;28;20044;-82
2022/04/25 05:45:44;;;;;;;32.22;9.52;;;;;;;;;;5053262;28;20049;-82
2022/04/25 05:54:36;;;;;;;29.70;8.93;;;;;;;;;;5053057;28;20044;-82
2022/04/25 05:57:22;;;;;;;16.88;5.50;;;;;;;;;;5053098;28;20108;-82
2022/04/25 06:00:11;;;;;;;20.08;6.65;;;;;;;;;;5052829;28;20490;-81
2022/04/25 06:02:59;;;;;;;20.83;5.82;;;;;;;;;;5053047;28;20041;-81
2022/04/25 06:05:45;;;;;;;15.75;5.78;;;;;;;;;;5053033;28;20045;-81
2022/04/25 06:08:30;;;;;;;25.02;7.53;;;;;;;;;;5052102;28;20644;-82
2022/04/25 06:11:16;;;;;;;21.23;6.90;;;;;;;;;;5052332;28;20052;-82
2022/04/25 06:14:02;;;;;;;19.77;6.50;;;;;;;;;;5052785;28;20041;-82
2022/04/25 06:16:47;;;;;;;22.80;6.47;;;;;;;;;;5053123;28;20044;-82
2022/04/25 06:19:32;;;;;;;21.98;5.55;;;;;;;;;;5053118;28;20049;-82
2022/04/25 06:22:19;;;;;;;23.23;5.68;;;;;;;;;;5052548;28;20037;-82
2022/04/25 06:25:06;;;;;;;13.27;3.50;;;;;;;;;;5053062;28;20041;-82
2022/04/25 06:27:52;;;;;;;16.83;4.05;;;;;;;;;;5052669;28;20070;-82
2022/04/25 06:30:38;;;;;;;8.93;3.03;;;;;;;;;;5059738;28;20389;-82
2022/04/25 06:33:23;;;;;;;15.13;3.50;;;;;;;;;;5052426;28;20049;-82
2022/04/25 06:36:09;;;;;;;14.43;3.42;;;;;;;;;;5052354;28;20044;-82
2022/04/25 06:38:55;;;;;;;15.63;3.75;;;;;;;;;;5052459;28;20402;-81
2022/04/25 06:41:41;;;;;;;17.23;3.60;;;;;;;;;;5052322;28;20053;-82
2022/04/25 06:44:27;;;;;;;13.07;3.72;;;;;;;;;;5059052;28;20485;-81
2022/04/25 06:47:12;;;;;;;13.68;3.90;;;;;;;;;;5052690;28;20041;-82
2022/04/25 06:49:58;;;;;;;15.52;3.92;;;;;;;;;;5058821;28;20041;-82
2022/04/25 06:52:45;;;;;;;16.23;3.92;;;;;;;;;;5051512;28;20053;-83
2022/04/25 06:55:30;;;;;;;13.00;3.58;;;;;;;;;;5051779;28;20041;-82
2022/04/25 06:58:16;;;;;;;14.98;3.95;;;;;;;;;;5059166;28;20041;-81
2022/04/25 07:01:03;;;;;;;15.05;3.75;;;;;;;;;;5052013;28;20045;-81
2022/04/25 07:03:48;;;;;;;12.05;3.28;;;;;;;;;;5050840;28;20481;-81
2022/04/25 07:06:34;;;;;;;10.55;2.65;;;;;;;;;;5052101;28;20469;-82
2022/04/25 07:09:19;;;;;;;8.25;2.17;;;;;;;;;;5051337;28;20041;-83
2022/04/25 07:12:04;;;;;;;6.20;1.73;;;;;;;;;;5052249;28;20099;-82
2022/04/25 07:14:49;;;;;;;4.03;1.17;;;;;;;;;;5051480;28;20053;-82
2022/04/25 07:17:35;;;;;;;2.08;1.00;;;;;;;;;;5051394;28;20037;-81
2022/04/25 07:20:21;;;;;;;10.02;1.67;;;;;;;;;;5051215;28;20049;-81
2022/04/25 07:29:14;;;;;;;4.18;1.27;;;;;;;;;;5051437;28;20041;-82
2022/04/25 07:32:00;;;;;;;2.33;1.25;;;;;;;;;;5051251;28;20401;-81
2022/04/25 07:34:48;;;;;;;4.07;1.40;;;;;;;;;;5051394;28;20048;-82
2022/04/25 07:37:35;;;;;;;4.65;1.02;;;;;;;;;;5051258;28;20041;-82
2022/04/25 07:40:21;;;;;;;4.40;1.08;;;;;;;;;;5051459;28;20481;-81
2022/04/25 07:43:07;;;;;;;12.27;1.80;;;;;;;;;;5051267;28;20053;-81
2022/04/25 07:45:52;;;;;;;7.20;1.20;;;;;;;;;;5051086;28;20045;-81
2022/04/25 07:48:38;;;;;;;6.10;1.40;;;;;;;;;;5051491;28;20366;-81
2022/04/25 07:51:25;;;;;;;5.63;1.30;;;;;;;;;;5058657;28;20033;-81
2022/04/25 07:54:11;;;;;;;7.85;1.63;;;;;;;;;;5056985;28;20045;-82
2022/04/25 07:56:57;;;;;;;3.67;1.33;;;;;;;;;;5051218;28;20057;-82
2022/04/25 07:59:42;;;;;;;4.90;1.25;;;;;;;;;;5051268;28;20483;-82
2022/04/25 08:02:28;;;;;;;4.15;1.30;;;;;;;;;;5050923;28;20045;-82
2022/04/25 08:05:14;;;;;;;9.82;1.50;;;;;;;;;;5051261;28;20045;-82
2022/04/25 08:07:59;;;;;;;2.78;1.10;;;;;;;;;;5051038;28;20389;-82
2022/04/25 08:10:45;;;;;;;3.42;0.95;;;;;;;;;;5050694;28;20049;-82
2022/04/25 08:19:55;;;;;;;3.17;1.10;;;;;;;;;;5071123;28;20049;-82
2022/04/25 08:22:40;;;;;;;2.38;0.90;;;;;;;;;;5050437;28;20041;-82
2022/04/25 08:25:26;;;;;;;9.95;1.40;;;;;;;;;;5050985;28;20049;-79
2022/04/25 08:28:14;;;;;;;6.78;1.35;;;;;;;;;;5057363;28;20041;-80
2022/04/25 08:30:59;;;;;;;5.75;1.48;;;;;;;;;;5057254;28;20037;-80
2022/04/25 08:33:46;;;;;;;4.75;1.20;;;;;;;;;;5050497;28;20057;-79
2022/04/25 08:36:31;;;;;;;5.32;1.40;;;;;;;;;;5050575;28;20056;-77
2022/04/25 08:39:16;;;;;;;4.50;1.33;;;;;;;;;;5057024;28;20153;-76
2022/04/25 08:42:03;;;;;;;7.18;1.30;;;;;;;;;;5051162;28;20045;-78
2022/04/25 08:44:54;;;;;;;3.80;0.82;;;;;;;;;;5050080;28;20646;-77
2022/04/25 08:47:47;;;;;;;6.78;1.20;;;;;;;;;;5050192;28;20033;-76
2022/04/25 08:50:32;;;;;;;2.75;0.82;;;;;;;;;;5054453;28;20037;-79
2022/04/25 08:53:21;;;;;;;5.70;1.48;;;;;;;;;;5049088;28;20080;-79
2022/04/25 08:56:12;;;;;;;4.95;1.42;;;;;;;;;;5048588;28;20045;-77
2022/04/25 08:58:58;;;;;;;3.78;1.38;;;;;;;;;;5050015;28;20057;-78
2022/04/25 09:01:43;;;;;;;2.92;0.75;;;;;;;;;;5050176;28;20358;-77
2022/04/25 09:04:28;;;;;;;3.20;1.45;;;;;;;;;;5049647;28;20049;-79
2022/04/25 09:07:14;;;;;;;5.43;1.55;;;;;;;;;;5049719;28;20486;-79
2022/04/25 09:09:59;;;;;;;2.55;1.10;;;;;;;;;;5050316;28;20048;-79
2022/04/25 09:12:47;;;;;;;2.58;0.90;;;;;;;;;;5050482;28;20494;-78
2022/04/25 09:15:34;;;;;;;2.53;0.88;;;;;;;;;;5056636;28;20041;-78
2022/04/25 09:18:20;;;;;;;3.92;0.95;;;;;;;;;;5050113;28;20590;-79
2022/04/25 09:21:12;;;;;;;3.13;1.00;;;;;;;;;;5056650;28;20041;-77
2022/04/25 09:23:59;;;;;;;2.42;0.63;;;;;;;;;;5049895;28;20053;-78
2022/04/25 09:26:45;;;;;;;5.55;0.95;;;;;;;;;;5056399;28;20045;-77
2022/04/25 09:29:31;;;;;;;5.20;1.20;;;;;;;;;;5056915;28;20405;-78
2022/04/25 09:32:18;;;;;;;2.67;1.10;;;;;;;;;;5056771;28;20045;-76
2022/04/25 09:35:38;;;;;;;3.30;1.10;;;;;;;;;;5057209;28;20045;-78
2022/04/25 09:38:30;;;;;;;2.92;1.30;;;;;;;;;;5056742;28;20049;-79
2022/04/25 09:41:16;;;;;;;1.40;1.02;;;;;;;;;;5056681;28;20037;-77
2022/04/25 09:44:05;;;;;;;1.75;0.63;;;;;;;;;;5051593;28;20462;-78
2022/04/25 09:46:50;;;;;;;4.65;1.30;;;;;;;;;;5053682;28;20045;-78
2022/04/25 09:49:36;;;;;;;4.50;1.05;;;;;;;;;;5059667;28;20045;-80
2022/04/25 09:52:22;;;;;;;3.38;1.10;;;;;;;;;;5051532;28;20045;-81
2022/04/25 09:55:17;;;;;;;3.80;1.70;;;;;;;;;;5052038;28;20053;-81
2022/04/25 09:58:22;;;;;;;9.70;1.70;;;;;;;;;;5058722;28;20045;-80
2022/04/25 10:01:13;;;;;;;4.05;1.30;;;;;;;;;;5059837;28;20048;-79
2022/04/25 10:03:58;;;;;;;6.28;1.30;;;;;;;;;;5068649;28;20049;-79
2022/04/25 10:06:44;;;;;;;18.08;1.30;;;;;;;;;;5052844;28;20045;-82
2022/04/25 10:09:31;;;;;;;1.33;0.70;;;;;;;;;;5052825;28;20137;-80
2022/04/25 10:12:17;;;;;;;4.05;1.65;;;;;;;;;;5052323;28;20044;-77
2022/04/25 10:15:06;;;;;;;3.00;1.58;;;;;;;;;;5054554;28;20045;-79
2022/04/25 10:17:54;;;;;;;9.90;1.33;;;;;;;;;;5052888;28;20049;-77
2022/04/25 10:20:42;;;;;;;1.75;0.85;;;;;;;;;;5059467;28;20470;-78
2022/04/25 10:23:28;;;;;;;5.28;1.20;;;;;;;;;;5052463;28;20045;-80
2022/04/25 10:26:13;;;;;;;4.38;1.30;;;;;;;;;;5052254;28;20048;-80
2022/04/25 10:29:08;;;;;;;5.03;1.42;;;;;;;;;;5058399;28;20053;-85
2022/04/25 10:32:01;;;;;;;8.38;1.80;;;;;;;;;;5052374;28;20052;-82
2022/04/25 10:34:51;;;;;;;4.22;1.60;;;;;;;;;;5052385;28;20497;-80
2022/04/25 10:37:43;;;;;;;9.90;3.03;;;;;;;;;;5059058;28;20041;-82
2022/04/25 10:44:10;;;;;;;6.47;1.70;;;;;;;;;;5051962;28;20049;-78
2022/04/25 10:47:05;;;;;;;5.07;0.90;;;;;;;;;;5051933;28;20049;-79
2022/04/25 10:49:53;;;;;;;4.30;1.63;;;;;;;;;;5052862;28;20041;-76
2022/04/25 10:52:42;;;;;;;4.15;1.33;;;;;;;;;;5051691;28;20489;-81
2022/04/25 10:55:34;;;;;;;2.22;0.88;;;;;;;;;;5058150;28;20045;-79
2022/04/25 10:58:21;;;;;;;1.50;1.08;;;;;;;;;;5051779;28;20037;-78
2022/04/25 11:01:06;;;;;;;6.38;1.50;;;;;;;;;;5058808;28;20044;-78
2022/04/25 11:04:05;;;;;;;4.13;1.45;;;;;;;;;;5051679;28;20045;-79
2022/04/25 11:07:23;;;;;;;2.95;1.08;;;;;;;;;;5052002;28;20048;-77
2022/04/25 11:10:41;;;;;;;2.22;1.20;;;;;;;;;;5052134;28;20056;-79
2022/04/25 11:13:49;;;;;;;4.20;1.30;;;;;;;;;;5051018;28;20049;-77
2022/04/25 11:16:35;;;;;;;4.68;1.25;;;;;;;;;;5058103;28;20041;-78
2022/04/25 11:19:23;;;;;;;4.43;1.48;;;;;;;;;;5057942;28;20413;-78
2022/04/25 11:22:08;;;;;;;3.78;2.15;;;;;;;;;;5050154;28;20049;-78
2022/04/25 11:24:54;;;;;;;1.98;1.00;;;;;;;;;;5050277;28;20052;-77
2022/04/25 11:28:05;;;;;;;1.55;0.85;;;;;;;;;;5050791;28;20394;-80
2022/04/25 11:31:12;;;;;;;7.28;2.30;;;;;;;;;;5051122;28;20045;-80
2022/04/25 11:34:03;;;;;;;5.53;2.45;;;;;;;;;;5051107;28;20053;-75
2022/04/25 11:36:49;;;;;;;4.10;1.55;;;;;;;;;;5050623;28;20477;-77
2022/04/25 11:39:53;;;;;;;7.22;2.40;;;;;;;;;;5050980;28;20037;-78
2022/04/25 11:42:38;;;;;;;6.28;2.42;;;;;;;;;;5051259;28;20049;-76
2022/04/25 11:45:24;;;;;;;3.33;1.25;;;;;;;;;;5057891;28;20049;-78
2022/04/25 11:48:13;;;;;;;6.13;1.85;;;;;;;;;;5051150;28;20045;-77
2022/04/25 11:50:59;;;;;;;3.63;1.50;;;;;;;;;;5051301;28;20053;-78
2022/04/25 11:53:45;;;;;;;2.75;1.15;;;;;;;;;;5051035;28;20037;-78
2022/04/25 11:56:32;;;;;;;5.57;1.48;;;;;;;;;;5051636;28;20053;-80
2022/04/25 11:59:19;;;;;;;3.70;1.23;;;;;;;;;;5057606;28;20502;-77
2022/04/25 12:02:04;;;;;;;3.20;1.10;;;;;;;;;;5057553;28;20057;-79
2022/04/25 12:04:50;;;;;;;4.90;1.33;;;;;;;;;;5056803;28;20049;-80
2022/04/25 12:07:36;;;;;;;3.45;1.10;;;;;;;;;;5050012;28;20049;-80
2022/04/25 12:16:34;;;;;;;5.22;1.17;;;;;;;;;;5058404;28;20041;-78
2022/04/25 12:19:22;;;;;;;3.55;0.93;;;;;;;;;;5050750;28;20041;-80
2022/04/25 12:22:07;;;;;;;4.10;1.10;;;;;;;;;;5050876;28;20048;-77
2022/04/25 12:25:20;;;;;;;5.38;1.95;;;;;;;;;;5057516;28;20045;-77
2022/04/25 12:28:18;;;;;;;5.07;0.80;;;;;;;;;;5050634;28;20037;-77
2022/04/25 12:31:11;;;;;;;3.33;0.82;;;;;;;;;;5057218;28;20481;-77
2022/04/25 12:34:05;;;;;;;1.33;0.52;;;;;;;;;;5050967;28;20054;-77
2022/04/25 12:36:58;;;;;;;2.60;1.45;;;;;;;;;;5050283;28;20040;-79
2022/04/25 12:40:03;;;;;;;5.70;1.10;;;;;;;;;;5050760;28;20049;-80
2022/04/25 12:42:54;;;;;;;2.08;0.80;;;;;;;;;;5057503;28;20044;-79
2022/04/25 12:45:49;;;;;;;3.47;0.90;;;;;;;;;;5050849;28;20041;-80
2022/04/25 12:49:17;;;;;;;2.35;0.88;;;;;;;;;;5051038;28;20045;-80
2022/04/25 12:52:06;;;;;;;2.20;0.70;;;;;;;;;;5071199;28;20036;-78
2022/04/25 12:54:51;;;;;;;7.07;1.30;;;;;;;;;;5071142;28;20056;-81
2022/04/25 12:57:36;;;;;;;3.20;1.00;;;;;;;;;;5052513;28;20037;-78
2022/04/25 13:00:21;;;;;;;4.20;0.98;;;;;;;;;;5050512;28;20041;-79
2022/04/25 13:03:08;;;;;;;2.20;0.88;;;;;;;;;;5056875;28;20489;-79
2022/04/25 13:05:54;;;;;;;4.25;0.90;;;;;;;;;;5050259;28;20049;-80
2022/04/25 13:08:39;;;;;;;4.72;1.10;;;;;;;;;;5056730;28;20505;-80
2022/04/25 13:11:25;;;;;;;4.07;0.95;;;;;;;;;;5050070;28;20037;-79
2022/04/25 13:14:11;;;;;;;4.32;1.23;;;;;;;;;;5050430;28;20385;-80
2022/04/25 13:16:56;;;;;;;1.95;0.73;;;;;;;;;;5050130;28;20041;-78
2022/04/25 13:19:43;;;;;;;4.53;0.90;;;;;;;;;;5059940;28;20401;-79
2022/04/25 13:22:28;;;;;;;2.53;0.80;;;;;;;;;;5053965;28;20037;-78
2022/04/25 13:25:15;;;;;;;4.00;0.90;;;;;;;;;;5053375;28;20406;-78
2022/04/25 13:28:00;;;;;;;3.67;1.08;;;;;;;;;;5053534;28;20045;-80
2022/04/25 13:30:45;;;;;;;3.40;1.10;;;;;;;;;;5053066;28;20037;-79
2022/04/25 13:33:30;;;;;;;3.33;1.77;;;;;;;;;;5053554;28;20041;-78
2022/04/25 13:36:16;;;;;;;3.58;1.30;;;;;;;;;;5053246;28;20045;-79
2022/04/25 13:39:02;;;;;;;4.28;1.02;;;;;;;;;;5053067;28;20049;-79
2022/04/25 13:41:47;;;;;;;3.35;0.95;;;;;;;;;;5053714;28;20474;-78
2022/04/25 13:44:33;;;;;;;3.03;1.10;;;;;;;;;;5053536;28;20041;-79
2022/04/25 13:47:19;;;;;;;4.68;1.17;;;;;;;;;;5060088;28;20493;-78
2022/04/25 13:50:04;;;;;;;5.38;1.40;;;;;;;;;;5053508;28;20414;-79
2022/04/25 13:52:50;;;;;;;1.77;1.00;;;;;;;;;;5052806;28;20041;-77
2022/04/25 13:55:37;;;;;;;5.65;1.30;;;;;;;;;;5053322;28;20041;-78
2022/04/25 13:58:24;;;;;;;1.35;0.70;;;;;;;;;;5059674;28;20401;-78
2022/04/25 14:01:09;;;;;;;8.20;1.30;;;;;;;;;;5052927;28;20045;-79
2022/04/25 14:03:55;;;;;;;3.88;0.98;;;;;;;;;;5052910;28;20486;-77
2022/04/25 14:06:40;;;;;;;6.25;0.95;;;;;;;;;;5059464;28;20036;-78
2022/04/25 14:09:26;;;;;;;1.13;0.80;;;;;;;;;;5052885;28;20048;-77
2022/04/25 14:12:13;;;;;;;1.70;0.88;;;;;;;;;;5052947;28;20045;-78
2022/04/25 14:14:58;;;;;;;3.33;1.40;;;;;;;;;;5052884;28;20053;-78
2022/04/25 14:17:43;;;;;;;2.88;1.20;;;;;;;;;;5052970;28;20057;-77
2022/04/25 14:20:30;;;;;;;2.88;1.10;;;;;;;;;;5059605;28;20045;-78
2022/04/25 14:23:16;;;;;;;3.88;1.10;;;;;;;;;;5053110;28;20406;-77
2022/04/25 14:26:03;;;;;;;3.53;1.20;;;;;;;;;;5059004;28;20045;-77
2022/04/25 14:28:52;;;;;;;1.83;0.95;;;;;;;;;;5057823;28;20045;-78
2022/04/25 14:31:38;;;;;;;5.25;1.38;;;;;;;;;;5058799;28;20509;-77
2022/04/25 14:34:23;;;;;;;3.67;1.00;;;;;;;;;;5052716;28;20401;-77
2022/04/25 14:37:09;;;;;;;3.65;1.20;;;;;;;;;;5052372;28;20045;-77
2022/04/25 14:39:55;;;;;;;1.88;1.10;;;;;;;;;;5052428;28;20037;-78
2022/04/25 14:42:40;;;;;;;4.13;1.75;;;;;;;;;;5052349;28;20041;-78
2022/04/25 14:45:27;;;;;;;5.18;1.48;;;;;;;;;;5052419;28;20044;-78
2022/04/25 14:48:12;;;;;;;3.70;1.73;;;;;;;;;;5059048;28;20048;-79
2022/04/25 14:57:04;;;;;;;2.42;0.88;;;;;;;;;;5058417;28;20041;-79
2022/04/25 14:59:49;;;;;;;10.77;1.52;;;;;;;;;;5052333;28;20045;-79
2022/04/25 15:02:35;;;;;;;8.10;1.80;;;;;;;;;;5052232;28;20037;-79
2022/04/25 15:05:21;;;;;;;6.07;1.38;;;;;;;;;;5052014;28;20041;-79
2022/04/25 15:08:13;;;;;;;5.82;1.30;;;;;;;;;;5058271;28;20063;-79
2022/04/25 15:10:59;;;;;;;3.63;1.52;;;;;;;;;;5051745;28;20049;-79
2022/04/25 15:13:44;;;;;;;7.63;1.30;;;;;;;;;;5059113;28;20044;-80
2022/04/25 15:16:29;;;;;;;3.83;1.38;;;;;;;;;;5058333;28;20045;-80
2022/04/25 15:19:15;;;;;;;2.50;1.40;;;;;;;;;;5051719;28;20049;-79
2022/04/25 15:22:00;;;;;;;4.57;1.38;;;;;;;;;;5052104;28;20044;-79
2022/04/25 15:24:46;;;;;;;4.80;1.40;;;;;;;;;;5051635;28;20041;-79
2022/04/25 15:27:33;;;;;;;4.75;1.70;;;;;;;;;;5051911;28;20037;-78
2022/04/25 15:30:19;;;;;;;9.57;1.70;;;;;;;;;;5051725;28;20482;-79
2022/04/25 15:33:04;;;;;;;2.30;1.33;;;;;;;;;;5051669;28;20041;-79
2022/04/25 15:35:50;;;;;;;3.80;1.30;;;;;;;;;;5051158;28;20045;-78
2022/04/25 15:38:35;;;;;;;4.50;1.50;;;;;;;;;;5051762;28;20041;-78
2022/04/25 15:41:21;;;;;;;7.45;1.73;;;;;;;;;;5050501;28;20498;-78
2022/04/25 15:44:06;;;;;;;3.00;1.38;;;;;;;;;;5051413;28;20044;-77
2022/04/25 15:46:54;;;;;;;3.85;1.60;;;;;;;;;;5051224;28;20041;-78
2022/04/25 15:49:40;;;;;;;4.30;1.73;;;;;;;;;;5051262;28;20037;-76
2022/04/25 15:52:26;;;;;;;4.03;1.75;;;;;;;;;;5049715;28;20053;-77
2022/04/25 15:58:14;;;;;;;4.40;2.22;;;;;;;;;;5058169;28;20053;-77
2022/04/25 16:00:59;;;;;;;4.80;2.00;;;;;;;;;;5056540;28;20049;-84
2022/04/25 16:03:45;;;;;;;6.70;2.15;;;;;;;;;;5057701;28;20409;-86
2022/04/25 16:06:31;;;;;;;6.15;2.10;;;;;;;;;;5051141;28;20041;-83
2022/04/25 16:09:16;;;;;;;8.32;1.60;;;;;;;;;;5058307;28;20037;-87
2022/04/25 16:12:02;;;;;;;4.80;1.50;;;;;;;;;;5052169;28;20045;-87
2022/04/25 16:14:48;;;;;;;7.32;1.90;;;;;;;;;;5050902;28;20037;-85
2022/04/25 16:17:34;;;;;;;5.07;1.67;;;;;;;;;;5051628;28;20045;-87
2022/04/25 16:20:19;;;;;;;5.38;1.75;;;;;;;;;;5050023;28;20417;-84
2022/04/25 16:23:06;;;;;;;6.22;1.60;;;;;;;;;;5050220;28;20489;-84
2022/04/25 16:25:52;;;;;;;5.75;2.03;;;;;;;;;;5050672;28;20041;-84
2022/04/25 16:28:39;;;;;;;4.82;2.40;;;;;;;;;;5050949;28;20044;-83
2022/04/25 16:31:25;;;;;;;5.38;2.10;;;;;;;;;;5051013;28;20045;-83
2022/04/25 16:34:10;;;;;;;7.57;1.80;;;;;;;;;;5050609;28;20397;-83
2022/04/25 16:36:56;;;;;;;8.63;1.85;;;;;;;;;;5050309;28;20041;-83
2022/04/25 16:39:44;;;;;;;5.85;2.38;;;;;;;;;;5067840;28;20041;-82
2022/04/25 16:42:29;;;;;;;10.20;2.00;;;;;;;;;;5051599;28;20044;-86
2022/04/25 16:45:14;;;;;;;6.75;2.55;;;;;;;;;;5050730;28;20041;-85
2022/04/25 16:48:00;;;;;;;7.80;3.17;;;;;;;;;;5050557;28;20381;-84
2022/04/25 16:50:45;;;;;;;10.48;2.83;;;;;;;;;;5050484;28;20049;-84
2022/04/25 16:53:32;;;;;;;5.13;2.53;;;;;;;;;;5050260;28;20497;-84
2022/04/25 16:56:21;;;;;;;8.45;2.63;;;;;;;;;;5050494;28;20041;-84
2022/04/25 16:59:07;;;;;;;10.55;3.20;;;;;;;;;;5050563;28;20505;-83
2022/04/25 17:01:53;;;;;;;12.40;4.13;;;;;;;;;;5056664;28;20045;-83
2022/04/25 17:04:38;;;;;;;5.68;2.88;;;;;;;;;;5056529;28;20045;-85
2022/04/25 17:07:25;;;;;;;8.63;3.25;;;;;;;;;;5050735;28;20049;-84
2022/04/25 17:10:13;;;;;;;7.35;2.30;;;;;;;;;;5050320;28;20053;-84
2022/04/25 17:12:58;;;;;;;8.40;2.40;;;;;;;;;;5050087;28;20044;-84
2022/04/25 17:15:45;;;;;;;6.45;2.50;;;;;;;;;;5056193;28;20048;-85
2022/04/25 17:18:31;;;;;;;7.35;2.90;;;;;;;;;;5050117;28;20049;-83